Terminal Aerodrome Forecast
Issued by NWS

Home | Current Version | Previous Version | Text Only | Print | Product List | Glossary On
Versions: 1 2 3 4 5 6 7 8 9 10 11 12 13 14 15 16 17 18 19 20 21 22 23 24 25 26 27 28
000
FTUS45 KREV 281100 RRA
TAFTRK
TAF
KTRK 281140Z 2812/0112 VRB03KT P6SM VCSH FEW020 BKN035
     FM281800 36005KT 2SM -SN SCT008 OVC015
     FM282100 02005KT 5SM -SHSN FEW012 BKN025
     FM010100 VRB03KT P6SM VCSH BKN020
     FM010900 00000KT 3SM BCFG SCT002=

USA.gov is the U.S. government's official web portal to all federal, state and local government web resources and services.